Time;durP1;ratioP1;P1;durP2;ratioP2;P2;SDS_P1;SDS_P2;PMS_P1;PMS_P2;Temp;Humidity;BMP_temperature;BMP_pressure;BME280_temperature;BME280_humidity;BME280_pressure;Samples;Min_cycle;Max_cycle;Signal;HPM_P1;HPM_P2
2021/12/21 00:01:22;;;;;;;7.17;5.85;;;;;;;-3.92;57.52;94204.72;1698157;83;20972;-54
2021/12/21 00:03:49;;;;;;;10.88;8.75;;;;;;;-3.86;57.51;94204.58;1720158;83;21095;-53
2021/12/21 00:06:16;;;;;;;32.90;25.25;;;;;;;-3.77;57.06;94220.39;1720331;83;21116;-55
2021/12/21 00:08:42;;;;;;;19.87;16.05;;;;;;;-3.74;56.68;94221.78;1720036;83;20996;-56
2021/12/21 00:11:09;;;;;;;26.87;20.15;;;;;;;-3.71;56.06;94227.75;1720338;83;21011;-53
2021/12/21 00:13:52;;;;;;;70.85;53.92;;;;;;;-3.77;55.73;94220.39;1720962;83;21003;-53
2021/12/21 00:16:27;;;;;;;9.98;9.23;;;;;;;-3.80;54.90;94227.85;1717789;83;21062;-54
2021/12/21 00:19:06;;;;;;;6.92;6.42;;;;;;;-3.83;55.27;94233.41;1718613;83;21178;-56
2021/12/21 00:21:35;;;;;;;10.53;8.20;;;;;;;-3.89;55.07;94223.36;1717147;83;21491;-53
2021/12/21 00:24:01;;;;;;;10.28;9.18;;;;;;;-3.96;54.88;94234.02;1721213;83;20959;-52
2021/12/21 00:26:26;;;;;;;9.83;8.88;;;;;;;-4.08;55.18;94243.11;1722252;82;20975;-54
2021/12/21 00:29:02;;;;;;;7.20;6.50;;;;;;;-4.05;55.08;94242.95;1722474;81;20988;-54
2021/12/21 00:31:31;;;;;;;10.93;7.62;;;;;;;-4.00;55.36;94246.64;1722515;82;21825;-54
2021/12/21 00:33:58;;;;;;;11.25;7.97;;;;;;;-3.94;55.30;94259.38;1722484;81;21015;-54
2021/12/21 00:36:27;;;;;;;8.25;7.53;;;;;;;-3.84;55.36;94261.39;1722771;82;20994;-56
2021/12/21 00:38:55;;;;;;;7.05;6.45;;;;;;;-3.81;54.51;94256.64;1722299;83;20979;-54
2021/12/21 00:41:22;;;;;;;8.50;7.70;;;;;;;-3.71;54.27;94261.34;1722314;83;20947;-54
2021/12/21 00:43:48;;;;;;;7.97;7.33;;;;;;;-3.71;54.46;94267.30;1722377;83;21048;-54
2021/12/21 00:46:15;;;;;;;11.05;8.40;;;;;;;-3.72;54.17;94272.47;1704240;83;21072;-54
2021/12/21 00:48:52;;;;;;;17.07;9.20;;;;;;;-3.76;53.72;94266.27;1722492;83;20966;-54
2021/12/21 00:51:20;;;;;;;40.98;19.77;;;;;;;-3.75;54.21;94276.66;1699836;82;21043;-53
2021/12/21 00:53:46;;;;;;;19.37;11.75;;;;;;;-3.79;54.53;94279.09;1687689;83;21083;-54
2021/12/21 00:56:13;;;;;;;16.65;10.40;;;;;;;-3.87;54.45;94282.86;1688004;85;21142;-54
2021/12/21 00:58:40;;;;;;;7.83;6.12;;;;;;;-3.94;54.54;94290.27;1660469;85;21008;-54
2021/12/21 01:01:08;;;;;;;39.03;25.72;;;;;;;-3.98;54.89;94292.70;1687415;83;21024;-54
2021/12/21 01:03:44;;;;;;;41.80;20.90;;;;;;;-3.99;55.04;94287.13;1687392;85;21060;-53
2021/12/21 01:06:22;;;;;;;13.30;10.15;;;;;;;-3.90;55.26;94288.38;1687915;83;21535;-54
2021/12/21 01:11:30;;;;;;;15.68;10.75;;;;;;;-3.97;57.47;94284.84;1696678;83;20141;-53
2021/12/21 01:14:25;;;;;;;10.08;8.05;;;;;;;-4.12;58.71;94282.58;1708361;83;20969;-54
2021/12/21 01:19:07;;;;;;;13.53;10.40;;;;;;;-4.29;60.00;94270.27;1708825;84;21059;-53
2021/12/21 01:21:32;;;;;;;21.75;15.23;;;;;;;-4.44;60.66;94273.94;1721338;82;21151;-54
2021/12/21 01:24:56;;;;;;;31.77;20.60;;;;;;;-4.45;61.07;94269.70;1729546;82;20987;-53
2021/12/21 01:29:40;;;;;;;24.65;15.50;;;;;;;-4.29;60.98;94259.53;1729965;83;21534;-52
2021/12/21 01:34:56;;;;;;;14.18;11.50;;;;;;;-4.35;60.69;94273.08;1729893;82;21157;-54
2021/12/21 01:37:24;;;;;;;22.10;17.45;;;;;;;-4.27;60.25;94282.78;1728402;82;20999;-54
2021/12/21 01:39:56;;;;;;;16.40;12.13;;;;;;;-4.25;60.18;94277.23;1728896;82;20964;-52
2021/12/21 01:50:12;;;;;;;11.05;8.88;;;;;;;-4.24;60.18;94286.08;1729606;82;20935;-56
2021/12/21 01:52:38;;;;;;;11.38;8.38;;;;;;;-4.22;60.09;94291.84;1708619;82;21507;-54
2021/12/21 01:55:06;;;;;;;12.98;9.03;;;;;;;-4.25;60.23;94289.89;1688600;84;20964;-53
2021/12/21 01:57:33;;;;;;;9.43;7.08;;;;;;;-4.26;60.11;94288.35;1708837;84;20992;-54
2021/12/21 02:00:00;;;;;;;9.78;7.33;;;;;;;-4.32;60.56;94290.58;1708613;83;23205;-54
2021/12/21 02:02:26;;;;;;;8.05;7.25;;;;;;;-4.35;61.00;94283.81;1708629;84;21539;-54
2021/12/21 02:04:56;;;;;;;9.78;7.22;;;;;;;-4.42;61.55;94293.13;1708794;84;21440;-54
2021/12/21 02:07:23;;;;;;;8.03;7.25;;;;;;;-4.36;61.83;94287.63;1708247;83;21025;-55
2021/12/21 02:09:49;;;;;;;9.93;8.93;;;;;;;-4.30;61.93;94289.64;1708926;84;21063;-56
2021/12/21 02:12:19;;;;;;;14.38;10.53;;;;;;;-4.23;61.66;94287.03;1713558;83;21759;-55
2021/12/21 02:14:56;;;;;;;13.88;9.40;;;;;;;-4.19;61.43;94281.72;1716305;83;21066;-55
2021/12/21 02:20:40;;;;;;;15.20;10.03;;;;;;;-4.12;60.97;94271.83;1716068;83;21019;-55
2021/12/21 02:26:08;;;;;;;10.60;7.92;;;;;;;-3.98;60.19;94290.02;1721108;83;21165;-53
2021/12/21 02:30:55;;;;;;;7.72;7.12;;;;;;;-3.86;59.91;94292.47;1721084;83;21430;-52
2021/12/21 02:33:26;;;;;;;10.30;8.33;;;;;;;-3.85;59.67;94297.45;1720778;83;20978;-53
2021/12/21 02:35:53;;;;;;;10.75;8.08;;;;;;;-3.81;59.69;94294.81;1720950;83;21086;-53
2021/12/21 02:38:22;;;;;;;11.65;8.85;;;;;;;-3.80;59.35;94299.05;1692579;83;21157;-53
2021/12/21 02:40:49;;;;;;;58.48;22.70;;;;;;;-3.79;59.01;94296.00;1720321;83;21005;-53
2021/12/21 02:43:16;;;;;;;116.47;41.70;;;;;;;-3.85;58.88;94288.63;1721046;83;21580;-55
2021/12/21 02:45:42;;;;;;;29.07;13.93;;;;;;;-3.91;58.92;94293.55;1721012;83;21434;-54
2021/12/21 02:48:09;;;;;;;22.22;12.07;;;;;;;-4.02;58.67;94295.92;1721224;83;21018;-55
2021/12/21 02:50:38;;;;;;;11.40;9.38;;;;;;;-4.14;58.82;94294.25;1720989;83;21131;-54
2021/12/21 02:53:06;;;;;;;9.58;8.60;;;;;;;-4.20;59.19;94313.73;1715460;82;21023;-54
2021/12/21 02:55:33;;;;;;;8.83;7.30;;;;;;;-4.22;59.16;94313.33;1716311;83;20996;-53
2021/12/21 02:58:00;;;;;;;7.00;6.37;;;;;;;-4.27;59.42;94317.67;1716598;83;21004;-53
2021/12/21 03:00:29;;;;;;;13.35;11.95;;;;;;;-4.25;59.23;94314.81;1688134;83;21031;-53
2021/12/21 03:02:56;;;;;;;8.08;7.28;;;;;;;-4.34;59.48;94308.96;1715784;83;21158;-55
2021/12/21 03:05:25;;;;;;;54.80;35.15;;;;;;;-4.35;59.71;94321.39;1716223;83;20953;-52
2021/12/21 03:08:08;;;;;;;19.55;14.68;;;;;;;-4.43;59.53;94322.45;1716153;83;20952;-52
2021/12/21 03:10:28;;;;;;;18.82;10.50;;;;;;;-4.54;59.69;94324.20;1714485;83;21019;-53
2021/12/21 03:15:28;;;;;;;11.60;8.90;;;;;;;-4.60;60.51;94326.41;1716293;83;22195;-53
2021/12/21 03:17:59;;;;;;;10.80;9.70;;;;;;;-4.54;60.33;94329.02;1716243;83;20992;-53
2021/12/21 03:20:26;;;;;;;36.05;17.48;;;;;;;-4.46;60.93;94325.27;1716260;83;21071;-54
2021/12/21 03:22:56;;;;;;;23.20;11.90;;;;;;;-4.27;60.98;94335.88;1715687;82;21496;-54
2021/12/21 03:25:25;;;;;;;30.70;14.40;;;;;;;-4.15;60.44;94339.70;1716723;83;20944;-55
2021/12/21 03:27:53;;;;;;;46.45;17.85;;;;;;;-4.18;60.04;94338.30;1717119;83;21117;-54
2021/12/21 03:30:20;;;;;;;44.60;18.98;;;;;;;-4.27;59.90;94342.59;1716208;83;21032;-54
2021/12/21 03:32:47;;;;;;;39.70;19.80;;;;;;;-4.27;59.93;94347.21;1716788;83;21003;-54
2021/12/21 03:35:17;;;;;;;30.15;15.55;;;;;;;-4.27;59.88;94341.84;1716770;83;21012;-54
2021/12/21 03:37:44;;;;;;;31.42;18.02;;;;;;;-4.40;60.28;94353.34;1716954;83;20969;-53
2021/12/21 03:40:12;;;;;;;22.90;12.15;;;;;;;-4.48;60.76;94348.23;1688684;83;21108;-53
2021/12/21 03:42:39;;;;;;;30.70;14.47;;;;;;;-4.51;60.82;94349.75;1716667;83;20944;-53
2021/12/21 03:45:10;;;;;;;30.15;16.93;;;;;;;-4.48;61.17;94352.26;1716770;83;21047;-54
2021/12/21 03:47:37;;;;;;;43.08;20.12;;;;;;;-4.46;61.20;94358.82;1717053;83;21536;-54
2021/12/21 03:50:16;;;;;;;31.00;17.57;;;;;;;-4.47;61.38;94364.54;1716954;83;20972;-53
2021/12/21 03:52:38;;;;;;;42.67;20.25;;;;;;;-4.41;61.38;94358.50;1714280;82;21484;-54
2021/12/21 03:55:06;;;;;;;38.78;21.60;;;;;;;-4.29;60.97;94368.25;1716468;83;21008;-53
2021/12/21 03:57:36;;;;;;;309.10;129.97;;;;;;;-4.33;60.60;94375.48;1716400;83;20980;-53
2021/12/21 04:00:07;;;;;;;59.33;30.20;;;;;;;-4.40;60.84;94383.45;1716288;83;20972;-54
2021/12/21 04:02:33;;;;;;;41.65;22.60;;;;;;;-4.52;60.87;94380.41;1716396;83;21020;-53
2021/12/21 04:05:01;;;;;;;47.53;25.88;;;;;;;-4.51;60.99;94393.23;1687983;83;21155;-54
2021/12/21 04:07:29;;;;;;;34.50;20.50;;;;;;;-4.50;61.26;94387.52;1716348;83;21060;-54
2021/12/21 04:09:58;;;;;;;34.78;20.27;;;;;;;-4.35;61.87;94377.76;1711237;83;21523;-54
2021/12/21 04:12:25;;;;;;;36.90;21.48;;;;;;;-4.21;61.14;94381.99;1716262;83;21480;-54
2021/12/21 04:14:53;;;;;;;37.67;21.35;;;;;;;-4.13;61.26;94386.30;1716041;83;21460;-54
2021/12/21 04:17:24;;;;;;;42.65;23.98;;;;;;;-4.00;60.91;94379.03;1715971;83;21163;-52
2021/12/21 04:19:54;;;;;;;40.20;20.97;;;;;;;-3.98;61.01;94379.98;1716139;83;21464;-53
2021/12/21 04:22:21;;;;;;;51.60;25.82;;;;;;;-3.98;60.92;94384.80;1717479;82;20970;-54
2021/12/21 04:24:47;;;;;;;60.52;29.15;;;;;;;-3.88;60.83;94382.05;1722712;83;21057;-53
2021/12/21 04:27:17;;;;;;;59.48;28.02;;;;;;;-3.91;60.55;94381.44;1722514;83;20970;-54
2021/12/21 04:29:46;;;;;;;45.48;22.70;;;;;;;-3.94;60.67;94386.17;1722144;83;21157;-53
2021/12/21 04:32:13;;;;;;;35.83;19.12;;;;;;;-3.96;61.06;94395.17;1722579;83;20994;-54
2021/12/21 04:34:43;;;;;;;25.65;16.20;;;;;;;-3.94;61.16;94398.27;1694012;83;21058;-55
2021/12/21 04:37:10;;;;;;;27.75;16.15;;;;;;;-3.89;60.87;94402.75;1722570;83;21007;-54
2021/12/21 04:39:46;;;;;;;36.65;18.87;;;;;;;-3.82;61.32;94415.50;1722815;83;21010;-55
2021/12/21 04:42:08;;;;;;;25.70;15.90;;;;;;;-3.68;61.09;94422.41;1719442;82;21167;-53
2021/12/21 04:44:35;;;;;;;39.50;21.90;;;;;;;-3.63;60.68;94423.42;1722678;83;20942;-52
2021/12/21 04:47:02;;;;;;;28.40;16.45;;;;;;;-3.67;60.61;94417.23;1722566;83;21081;-53
2021/12/21 04:49:28;;;;;;;38.02;22.75;;;;;;;-3.83;60.81;94408.59;1723013;83;21485;-53
2021/12/21 04:51:55;;;;;;;52.85;23.83;;;;;;;-4.03;61.26;94416.57;1724794;82;21008;-55
2021/12/21 04:54:21;;;;;;;63.52;28.73;;;;;;;-4.15;61.49;94417.56;1752672;82;21105;-53
2021/12/21 04:56:48;;;;;;;57.62;26.48;;;;;;;-4.19;61.83;94415.95;1752731;82;21005;-53
2021/12/21 04:59:16;;;;;;;34.88;18.05;;;;;;;-4.10;61.75;94413.22;1723305;82;21081;-53
2021/12/21 05:01:43;;;;;;;27.37;13.45;;;;;;;-4.12;61.41;94416.05;1722806;82;21541;-55
2021/12/21 05:04:09;;;;;;;26.07;15.70;;;;;;;-4.19;61.61;94429.38;1752683;81;21006;-53
2021/12/21 05:06:38;;;;;;;24.05;14.93;;;;;;;-4.32;61.69;94432.06;1752533;82;21204;-53
2021/12/21 05:09:12;;;;;;;26.27;16.42;;;;;;;-4.42;62.18;94431.34;1752532;82;20953;-53
2021/12/21 05:11:42;;;;;;;27.07;16.95;;;;;;;-4.41;62.38;94436.34;1752232;82;21066;-52
2021/12/21 05:14:09;;;;;;;27.40;17.30;;;;;;;-4.32;62.85;94434.74;1752431;81;21545;-53
2021/12/21 05:16:37;;;;;;;31.73;20.48;;;;;;;-4.22;62.49;94426.84;1752548;82;21096;-55
2021/12/21 05:19:04;;;;;;;41.10;23.30;;;;;;;-4.17;62.20;94435.95;1752467;82;21102;-53
2021/12/21 05:21:34;;;;;;;120.02;56.18;;;;;;;-4.14;61.96;94431.20;1752396;82;21013;-53
2021/12/21 05:24:01;;;;;;;87.37;43.95;;;;;;;-4.17;61.89;94433.82;1750618;82;20986;-53
2021/12/21 05:26:28;;;;;;;97.85;48.17;;;;;;;-4.23;61.68;94437.37;1752360;82;20990;-53
2021/12/21 05:28:58;;;;;;;228.30;97.55;;;;;;;-4.26;62.14;94435.42;1752598;81;21447;-54
2021/12/21 05:31:25;;;;;;;216.78;92.53;;;;;;;-4.27;61.92;94431.19;1747654;81;21129;-53
2021/12/21 05:33:52;;;;;;;130.22;61.73;;;;;;;-4.31;61.62;94437.63;1752507;82;20974;-56
2021/12/21 05:36:20;;;;;;;62.98;33.73;;;;;;;-4.43;60.98;94432.48;1752544;81;20986;-57
2021/12/21 05:38:53;;;;;;;51.33;26.23;;;;;;;-4.72;60.96;94433.16;1752387;82;21473;-57
2021/12/21 05:41:25;;;;;;;33.13;19.52;;;;;;;-4.92;61.36;94431.67;1752524;82;21018;-51
2021/12/21 05:43:46;;;;;;;27.77;17.37;;;;;;;-5.05;62.09;94431.63;1751235;82;21834;-53
2021/12/21 05:46:13;;;;;;;25.97;18.23;;;;;;;-5.09;61.67;94440.17;1752333;82;21457;-53
2021/12/21 05:48:39;;;;;;;25.45;17.48;;;;;;;-5.22;61.78;94444.14;1752404;82;21505;-54
2021/12/21 05:51:07;;;;;;;31.15;18.17;;;;;;;-5.35;61.77;94448.12;1752511;82;21548;-54
2021/12/21 05:53:34;;;;;;;31.55;19.42;;;;;;;-5.47;62.34;94457.65;1722854;82;20962;-55
2021/12/21 05:56:02;;;;;;;78.72;41.15;;;;;;;-5.44;62.62;94456.94;1727673;82;21117;-53
2021/12/21 05:58:29;;;;;;;109.20;49.48;;;;;;;-5.41;62.58;94463.51;1751765;82;21433;-53
2021/12/21 06:00:56;;;;;;;88.97;41.42;;;;;;;-5.42;63.01;94466.73;1752306;82;21021;-53
2021/12/21 06:03:24;;;;;;;104.55;46.65;;;;;;;-5.40;63.07;94446.30;1722886;82;20970;-53
2021/12/21 06:05:57;;;;;;;82.05;38.53;;;;;;;-5.41;63.49;94468.28;1750589;82;21399;-53
2021/12/21 06:08:25;;;;;;;115.65;50.58;;;;;;;-5.41;63.41;94461.58;1722958;82;21510;-55
2021/12/21 06:10:55;;;;;;;67.80;31.80;;;;;;;-5.41;63.67;94460.83;1752385;82;21431;-54
2021/12/21 06:26:44;;;;;;;98.97;45.80;;;;;;;-6.03;64.29;94433.77;1716298;83;21488;-52
2021/12/21 06:29:11;;;;;;;93.78;44.50;;;;;;;-6.07;64.30;94438.28;1716151;83;21047;-53
2021/12/21 06:31:40;;;;;;;96.15;45.52;;;;;;;-6.12;64.35;94441.20;1724711;81;21049;-54
2021/12/21 06:34:07;;;;;;;119.72;53.52;;;;;;;-6.11;64.37;94448.69;1728687;81;21187;-54
2021/12/21 06:36:35;;;;;;;132.07;54.75;;;;;;;-6.11;64.33;94449.48;1734270;81;21460;-59
2021/12/21 06:39:02;;;;;;;153.35;65.55;;;;;;;-6.09;64.21;94449.90;1737447;81;20995;-53
2021/12/21 06:41:31;;;;;;;174.80;74.20;;;;;;;-6.12;63.94;94456.50;1691671;81;21172;-56
2021/12/21 06:44:00;;;;;;;160.03;67.17;;;;;;;-6.06;64.41;94451.87;1729677;81;21361;-57
2021/12/21 06:46:48;;;;;;;148.43;65.75;;;;;;;-5.94;64.03;94455.74;1717464;81;21146;-56
2021/12/21 06:51:51;;;;;;;99.55;47.90;;;;;;;-5.93;63.87;94450.60;1744869;82;20430;-58
2021/12/21 06:54:17;;;;;;;70.35;36.68;;;;;;;-5.93;64.05;94457.30;1735480;81;20976;-59
2021/12/21 06:56:43;;;;;;;147.53;71.72;;;;;;;-5.92;63.96;94464.23;1737779;81;20959;-58
2021/12/21 06:59:14;;;;;;;140.97;62.67;;;;;;;-6.00;63.24;94466.52;1734341;82;21086;-56
2021/12/21 07:01:41;;;;;;;119.33;55.48;;;;;;;-6.08;62.90;94478.77;1737948;81;21124;-57
2021/12/21 07:04:11;;;;;;;135.43;66.17;;;;;;;-6.03;62.62;94478.48;1719475;81;21542;-58
2021/12/21 07:06:40;;;;;;;128.38;58.58;;;;;;;-6.00;62.50;94471.88;1730236;81;21383;-57
2021/12/21 07:09:30;;;;;;;143.35;67.35;;;;;;;-5.91;62.57;94480.50;1718277;82;21098;-56
2021/12/21 07:11:57;;;;;;;312.57;109.00;;;;;;;-5.80;62.67;94487.42;1722847;81;21154;-58
2021/12/21 07:19:51;;;;;;;260.75;88.25;;;;;;;-5.60;61.91;94487.04;1713699;81;21091;-60
2021/12/21 07:22:21;;;;;;;216.70;79.82;;;;;;;-5.53;61.16;94481.05;1731916;81;21013;-54
2021/12/21 07:24:48;;;;;;;184.32;74.37;;;;;;;-5.59;60.89;94489.92;1700952;82;21227;-55
2021/12/21 07:27:16;;;;;;;200.03;70.37;;;;;;;-5.60;60.86;94483.60;1711677;82;21023;-57
2021/12/21 07:29:42;;;;;;;164.22;67.47;;;;;;;-5.64;60.91;94490.22;1700930;81;21023;-55
2021/12/21 07:32:09;;;;;;;201.65;74.42;;;;;;;-5.60;60.96;94486.28;1698460;83;20990;-56
2021/12/21 07:34:37;;;;;;;165.03;66.12;;;;;;;-5.52;60.86;94492.77;1705774;82;22269;-57
2021/12/21 07:37:09;;;;;;;134.15;62.48;;;;;;;-5.36;60.93;94490.02;1684433;82;21841;-57
2021/12/21 07:39:36;;;;;;;144.40;61.65;;;;;;;-5.18;60.48;94485.22;1740410;81;20998;-54
2021/12/21 07:42:05;;;;;;;148.38;62.88;;;;;;;-5.09;60.47;94487.89;1728880;82;21114;-55
2021/12/21 07:44:33;;;;;;;203.98;84.55;;;;;;;-5.04;60.32;94486.25;1724763;82;21033;-54
2021/12/21 07:47:01;;;;;;;230.07;99.62;;;;;;;-4.96;60.36;94490.59;1706236;81;21042;-57
2021/12/21 07:49:30;;;;;;;221.07;92.55;;;;;;;-4.78;60.44;94493.61;1708729;81;21280;-58
2021/12/21 07:51:59;;;;;;;266.42;112.22;;;;;;;-4.64;60.07;94501.33;1731045;81;21838;-54
2021/12/21 07:54:28;;;;;;;253.50;111.57;;;;;;;-4.42;59.89;94503.81;1725085;81;21054;-55
2021/12/21 07:56:55;;;;;;;365.40;149.10;;;;;;;-4.24;59.34;94506.22;1723427;82;21969;-56
2021/12/21 07:59:23;;;;;;;132.32;65.12;;;;;;;-4.15;59.18;94504.05;1732456;82;21054;-59
2021/12/21 08:01:52;;;;;;;234.25;104.30;;;;;;;-4.01;58.81;94502.92;1731172;81;21117;-56
2021/12/21 08:04:26;;;;;;;213.47;101.00;;;;;;;-3.82;58.56;94512.22;1704720;82;21073;-54
2021/12/21 08:06:53;;;;;;;199.00;96.67;;;;;;;-3.71;57.88;94521.22;1734439;81;21085;-54
2021/12/21 08:09:20;;;;;;;166.07;85.05;;;;;;;-3.65;57.75;94513.05;1734887;81;21049;-58
2021/12/21 08:14:42;;;;;;;22.50;14.20;;;;;;;-3.34;56.03;94515.59;1721051;81;21210;-57
2021/12/21 08:17:10;;;;;;;20.25;12.35;;;;;;;-3.27;55.22;94528.36;1732398;81;21035;-57
2021/12/21 08:19:37;;;;;;;26.00;17.15;;;;;;;-3.28;55.30;94527.56;1690046;82;21108;-55
2021/12/21 08:22:06;;;;;;;19.98;12.78;;;;;;;-3.21;55.14;94534.37;1728361;81;21060;-58
2021/12/21 08:24:33;;;;;;;13.98;9.80;;;;;;;-3.07;54.46;94526.48;1727221;81;21068;-54
2021/12/21 08:27:05;;;;;;;22.30;16.60;;;;;;;-2.99;53.86;94544.27;1679296;82;21975;-55
2021/12/21 08:29:32;;;;;;;34.75;23.32;;;;;;;-2.90;54.12;94533.98;1734126;82;20998;-56
2021/12/21 08:32:01;;;;;;;45.00;26.37;;;;;;;-2.62;53.84;94540.25;1722077;81;21038;-55
2021/12/21 08:34:29;;;;;;;20.37;13.78;;;;;;;-2.27;52.87;94537.35;1725190;82;21097;-59
2021/12/21 08:36:56;;;;;;;37.70;22.15;;;;;;;-2.09;52.06;94539.62;1728017;82;21076;-57
2021/12/21 08:39:24;;;;;;;19.23;13.83;;;;;;;-2.09;52.44;94532.89;1715134;81;21152;-55
2021/12/21 08:41:57;;;;;;;14.60;10.65;;;;;;;-1.97;51.70;94540.67;1709543;81;21078;-57
2021/12/21 08:44:22;;;;;;;9.88;8.10;;;;;;;-1.87;51.58;94533.26;1725654;81;21022;-60
2021/12/21 08:46:49;;;;;;;11.85;9.10;;;;;;;-1.85;50.16;94543.09;1708912;82;21038;-58
2021/12/21 08:49:17;;;;;;;14.75;10.48;;;;;;;-1.94;50.84;94535.87;1717840;82;21110;-59
2021/12/21 08:51:51;;;;;;;29.52;17.92;;;;;;;-2.02;50.65;94548.32;1716612;81;23632;-58
2021/12/21 08:54:18;;;;;;;12.85;9.25;;;;;;;-2.17;50.23;94535.30;1728670;81;21013;-57
2021/12/21 08:56:48;;;;;;;12.23;9.93;;;;;;;-2.24;50.87;94538.51;1709740;81;21060;-56
2021/12/21 08:59:17;;;;;;;18.48;12.75;;;;;;;-2.36;51.12;94542.25;1699426;82;21063;-54
2021/12/21 09:01:45;;;;;;;14.83;10.53;;;;;;;-2.30;51.59;94536.72;1721282;81;22201;-55
2021/12/21 09:04:14;;;;;;;29.25;18.02;;;;;;;-2.17;50.99;94527.23;1732496;81;21108;-55
2021/12/21 09:06:41;;;;;;;33.88;19.35;;;;;;;-2.15;50.73;94541.69;1705984;82;21054;-55
2021/12/21 09:09:08;;;;;;;24.47;16.23;;;;;;;-2.11;50.71;94545.94;1727367;82;20966;-55
2021/12/21 09:11:38;;;;;;;24.92;15.75;;;;;;;-2.06;51.28;94548.31;1712704;82;21074;-57
2021/12/21 09:14:06;;;;;;;23.20;14.93;;;;;;;-2.06;50.57;94538.88;1729104;81;21707;-54
2021/12/21 09:16:33;;;;;;;21.00;14.23;;;;;;;-2.07;51.09;94542.72;1727443;81;21171;-55
2021/12/21 09:19:02;;;;;;;16.42;12.53;;;;;;;-1.96;51.13;94547.61;1714225;81;21032;-57
2021/12/21 09:21:37;;;;;;;15.95;10.60;;;;;;;-1.91;50.59;94546.50;1729490;80;21113;-54
2021/12/21 09:24:05;;;;;;;18.50;11.28;;;;;;;-1.68;51.26;94534.36;1727782;81;21171;-59
2021/12/21 09:26:38;;;;;;;13.00;9.43;;;;;;;-1.68;51.26;94534.36;1725594;82;21097;-54
2021/12/21 09:29:05;;;;;;;8.78;7.72;;;;;;;-1.51;50.14;94534.47;1732539;81;21121;-60
2021/12/21 09:31:35;;;;;;;10.43;8.70;;;;;;;-1.31;49.86;94529.59;1712765;81;21076;-55
2021/12/21 09:34:03;;;;;;;14.43;11.00;;;;;;;-0.94;49.80;94528.80;1724872;81;21535;-54
2021/12/21 09:36:34;;;;;;;8.28;7.47;;;;;;;-0.40;48.56;94523.19;1733511;82;21043;-54
2021/12/21 09:39:01;;;;;;;6.90;6.20;;;;;;;0.15;46.86;94530.02;1715706;82;21070;-54
2021/12/21 09:41:27;;;;;;;9.80;7.50;;;;;;;0.49;46.87;94528.45;1724033;81;21142;-55
2021/12/21 09:43:56;;;;;;;10.00;7.47;;;;;;;0.59;46.66;94533.06;1725448;81;21003;-54
2021/12/21 09:46:23;;;;;;;12.93;11.15;;;;;;;0.51;46.54;94530.75;1723359;81;21013;-56
2021/12/21 09:48:53;;;;;;;11.93;9.30;;;;;;;0.41;46.78;94539.67;1726006;81;21076;-54
2021/12/21 09:51:21;;;;;;;11.95;7.95;;;;;;;0.28;46.09;94533.09;1723776;81;21010;-54
2021/12/21 09:53:51;;;;;;;8.08;7.22;;;;;;;-0.03;46.54;94543.31;1725867;81;21144;-54
2021/12/21 09:56:18;;;;;;;12.37;11.08;;;;;;;-0.32;47.23;94543.66;1725406;81;20960;-55
2021/12/21 09:58:45;;;;;;;48.13;43.85;;;;;;;-0.66;47.16;94537.78;1725314;81;21038;-57
2021/12/21 10:01:15;;;;;;;10.70;9.58;;;;;;;-0.88;48.37;94538.08;1726472;81;21084;-54
2021/12/21 10:03:42;;;;;;;217.50;117.28;;;;;;;-0.95;48.64;94543.45;1723231;81;20982;-55
2021/12/21 10:06:10;;;;;;;185.78;98.07;;;;;;;-1.07;49.15;94549.17;1724116;81;21143;-55
2021/12/21 10:08:38;;;;;;;55.70;33.13;;;;;;;-1.16;48.70;94556.84;1721980;81;20997;-58
2021/12/21 10:11:06;;;;;;;130.60;78.85;;;;;;;-1.07;49.11;94551.87;1733538;81;21485;-56
2021/12/21 10:13:37;;;;;;;115.62;70.22;;;;;;;-0.99;49.72;94548.07;1711044;82;21101;-56
2021/12/21 10:16:05;;;;;;;28.67;21.73;;;;;;;-0.95;49.48;94551.55;1735364;81;21439;-53
2021/12/21 10:18:35;;;;;;;15.30;12.80;;;;;;;-0.90;49.66;94546.57;1701613;81;21157;-56
2021/12/21 10:21:08;;;;;;;332.48;200.22;;;;;;;-0.87;49.90;94542.31;1722552;81;21534;-53
2021/12/21 10:23:48;;;;;;;36.63;25.85;;;;;;;-0.86;50.38;94538.47;1703942;82;21585;-57
2021/12/21 10:26:28;;;;;;;23.57;17.35;;;;;;;-0.63;50.14;94545.70;1733819;81;22400;-59
2021/12/21 10:29:05;;;;;;;12.53;10.13;;;;;;;-0.51;50.04;94541.29;1723848;81;21067;-56
2021/12/21 10:31:39;;;;;;;36.45;25.40;;;;;;;-0.48;50.04;94539.17;1720171;81;21083;-54
2021/12/21 10:34:18;;;;;;;17.15;13.32;;;;;;;-0.30;49.63;94537.28;1726945;81;21023;-58
2021/12/21 10:36:49;;;;;;;8.10;7.10;;;;;;;-0.02;49.22;94540.23;1720993;81;21097;-53
2021/12/21 10:39:23;;;;;;;15.10;13.10;;;;;;;0.18;47.89;94546.03;1734165;81;21091;-55
2021/12/21 10:41:52;;;;;;;8.80;7.92;;;;;;;0.32;47.70;94542.77;1731948;81;21049;-55
2021/12/21 10:44:20;;;;;;;9.93;8.43;;;;;;;0.41;47.23;94536.37;1715591;82;21126;-54
2021/12/21 10:46:52;;;;;;;10.23;8.18;;;;;;;0.35;47.55;94535.22;1721408;81;21061;-54
2021/12/21 10:49:22;;;;;;;8.45;7.65;;;;;;;0.29;47.78;94538.13;1728656;81;21045;-56
2021/12/21 10:52:04;;;;;;;15.32;13.35;;;;;;;0.08;47.07;94543.52;1728339;81;20995;-56
2021/12/21 10:54:41;;;;;;;29.10;19.82;;;;;;;-0.25;47.72;94544.44;1725124;81;21082;-56
2021/12/21 10:57:23;;;;;;;13.88;10.53;;;;;;;-0.33;48.28;94534.78;1725314;82;21732;-57
2021/12/21 10:59:53;;;;;;;16.77;13.07;;;;;;;-0.35;48.13;94547.12;1716433;81;21115;-55
2021/12/21 11:02:29;;;;;;;15.88;11.95;;;;;;;-0.53;48.37;94551.70;1715298;81;21546;-56
2021/12/21 11:05:11;;;;;;;7.55;6.80;;;;;;;-0.70;49.22;94551.06;1736138;81;21025;-55
2021/12/21 11:07:45;;;;;;;9.80;7.28;;;;;;;-0.68;49.17;94540.66;1704442;81;21041;-58
2021/12/21 11:10:17;;;;;;;7.40;6.60;;;;;;;-0.73;49.63;94542.38;1734317;81;21341;-55
2021/12/21 11:12:48;;;;;;;13.28;10.68;;;;;;;-0.95;49.55;94542.11;1730513;81;21201;-57
2021/12/21 11:15:29;;;;;;;17.05;11.50;;;;;;;-1.12;50.53;94537.39;1743554;82;21522;-56
2021/12/21 11:17:59;;;;;;;18.37;13.55;;;;;;;-1.09;50.97;94541.47;1711072;83;21021;-55
2021/12/21 11:20:26;;;;;;;12.58;11.28;;;;;;;-0.94;51.59;94546.34;1743583;82;21064;-60
2021/12/21 11:22:55;;;;;;;13.78;12.37;;;;;;;-0.97;51.15;94543.82;1700950;81;21877;-55
2021/12/21 11:25:22;;;;;;;10.10;7.90;;;;;;;-0.92;51.68;94545.39;1717952;81;21005;-54
2021/12/21 11:27:50;;;;;;;10.75;8.58;;;;;;;-0.84;51.27;94532.11;1723218;81;21084;-54
2021/12/21 11:30:24;;;;;;;36.80;24.25;;;;;;;-0.91;51.37;94534.78;1735707;81;21553;-56
2021/12/21 11:32:53;;;;;;;15.93;12.82;;;;;;;-0.94;51.41;94528.80;1732940;82;21046;-56
2021/12/21 11:38:01;;;;;;;19.25;14.68;;;;;;;-0.78;52.44;94527.31;1731828;82;21554;-56
2021/12/21 11:40:32;;;;;;;40.28;24.77;;;;;;;-0.71;52.64;94526.57;1729847;81;21542;-55
2021/12/21 11:43:25;;;;;;;20.45;14.70;;;;;;;-0.55;51.78;94524.30;1727678;81;21061;-57
2021/12/21 11:46:05;;;;;;;11.88;9.35;;;;;;;-0.45;51.41;94519.52;1737757;82;21301;-56
2021/12/21 11:48:46;;;;;;;62.27;33.13;;;;;;;-0.53;52.08;94528.19;1703190;82;21133;-56
2021/12/21 11:51:14;;;;;;;48.75;31.17;;;;;;;-0.37;52.09;94529.17;1738509;82;21120;-57
2021/12/21 11:53:43;;;;;;;96.28;56.63;;;;;;;-0.42;51.01;94523.56;1740430;82;21048;-58
2021/12/21 11:56:18;;;;;;;47.83;30.52;;;;;;;-0.59;51.86;94535.09;1732174;81;21153;-57
2021/12/21 11:58:47;;;;;;;49.55;30.55;;;;;;;-0.58;52.25;94547.44;1735281;81;21041;-57
2021/12/21 12:01:27;;;;;;;94.80;53.15;;;;;;;-0.58;52.39;94552.84;1739985;81;21169;-58
2021/12/21 12:04:03;;;;;;;32.40;20.48;;;;;;;-0.58;52.31;94556.89;1736198;81;20977;-58
2021/12/21 12:06:54;;;;;;;32.03;21.90;;;;;;;-0.55;52.85;94558.07;1736695;81;20985;-55
2021/12/21 12:09:30;;;;;;;102.62;66.85;;;;;;;-0.69;53.41;94576.92;1706982;82;21055;-56
2021/12/21 12:12:07;;;;;;;23.15;19.42;;;;;;;-0.93;54.27;94574.89;1735519;81;21570;-54
2021/12/21 12:14:36;;;;;;;9.45;8.45;;;;;;;-1.04;55.16;94580.23;1728757;81;21109;-56
2021/12/21 12:17:22;;;;;;;9.90;8.90;;;;;;;-1.14;55.43;94578.83;1671059;81;20981;-57
2021/12/21 12:19:55;;;;;;;7.70;6.35;;;;;;;-1.30;56.16;94577.75;1697901;82;21063;-57
2021/12/21 12:22:41;;;;;;;8.08;7.17;;;;;;;-1.39;56.36;94570.58;1681827;83;22220;-59
2021/12/21 12:25:15;;;;;;;12.88;9.33;;;;;;;-1.52;56.51;94571.27;1720259;81;21091;-55
2021/12/21 12:27:47;;;;;;;13.25;11.25;;;;;;;-1.58;57.21;94569.48;1719984;81;21152;-60